sensor_id;sensor_type;location;lat;lon;timestamp;P1;durP1;ratioP1;P2;durP2;ratioP2
9420;SDS011;4749;51.398;5.466;2022-12-17T00:00:50;84.03;;;39.43;;
9420;SDS011;4749;51.398;5.466;2022-12-17T00:03:52;85.87;;;40.37;;
9420;SDS011;4749;51.398;5.466;2022-12-17T00:06:51;96.20;;;41.50;;
9420;SDS011;4749;51.398;5.466;2022-12-17T00:09:56;86.53;;;40.10;;
9420;SDS011;4749;51.398;5.466;2022-12-17T00:12:49;89.40;;;40.17;;
9420;SDS011;4749;51.398;5.466;2022-12-17T00:15:53;90.20;;;42.47;;
9420;SDS011;4749;51.398;5.466;2022-12-17T00:18:49;91.13;;;41.20;;
9420;SDS011;4749;51.398;5.466;2022-12-17T00:21:35;77.30;;;37.77;;
9420;SDS011;4749;51.398;5.466;2022-12-17T00:24:27;84.57;;;40.60;;
9420;SDS011;4749;51.398;5.466;2022-12-17T00:27:13;87.37;;;40.17;;
9420;SDS011;4749;51.398;5.466;2022-12-17T00:29:59;89.40;;;41.03;;
9420;SDS011;4749;51.398;5.466;2022-12-17T00:32:59;89.80;;;38.97;;
9420;SDS011;4749;51.398;5.466;2022-12-17T00:35:52;89.37;;;39.23;;
9420;SDS011;4749;51.398;5.466;2022-12-17T00:38:38;82.70;;;38.63;;
9420;SDS011;4749;51.398;5.466;2022-12-17T00:41:24;87.30;;;39.87;;
9420;SDS011;4749;51.398;5.466;2022-12-17T00:44:10;84.13;;;38.80;;
9420;SDS011;4749;51.398;5.466;2022-12-17T00:46:55;83.53;;;39.83;;
9420;SDS011;4749;51.398;5.466;2022-12-17T00:49:42;79.07;;;38.83;;
9420;SDS011;4749;51.398;5.466;2022-12-17T00:52:28;85.90;;;40.23;;
9420;SDS011;4749;51.398;5.466;2022-12-17T00:55:13;82.00;;;38.87;;
9420;SDS011;4749;51.398;5.466;2022-12-17T00:57:59;86.17;;;38.50;;
9420;SDS011;4749;51.398;5.466;2022-12-17T01:00:45;80.70;;;39.13;;
9420;SDS011;4749;51.398;5.466;2022-12-17T01:03:31;77.40;;;38.33;;
9420;SDS011;4749;51.398;5.466;2022-12-17T01:06:17;79.47;;;37.73;;
9420;SDS011;4749;51.398;5.466;2022-12-17T01:09:03;78.57;;;39.10;;
9420;SDS011;4749;51.398;5.466;2022-12-17T01:11:48;73.03;;;37.30;;
9420;SDS011;4749;51.398;5.466;2022-12-17T01:14:34;83.20;;;38.07;;
9420;SDS011;4749;51.398;5.466;2022-12-17T01:17:20;82.87;;;39.00;;
9420;SDS011;4749;51.398;5.466;2022-12-17T01:20:06;77.70;;;36.90;;
9420;SDS011;4749;51.398;5.466;2022-12-17T01:22:52;74.03;;;36.50;;
9420;SDS011;4749;51.398;5.466;2022-12-17T01:25:38;82.53;;;37.63;;
9420;SDS011;4749;51.398;5.466;2022-12-17T01:28:24;77.57;;;36.00;;
9420;SDS011;4749;51.398;5.466;2022-12-17T01:31:10;78.10;;;38.63;;
9420;SDS011;4749;51.398;5.466;2022-12-17T01:34:00;77.87;;;36.73;;
9420;SDS011;4749;51.398;5.466;2022-12-17T01:36:46;81.87;;;38.50;;
9420;SDS011;4749;51.398;5.466;2022-12-17T01:39:32;84.93;;;38.43;;
9420;SDS011;4749;51.398;5.466;2022-12-17T01:42:17;85.37;;;38.50;;
9420;SDS011;4749;51.398;5.466;2022-12-17T01:45:03;72.73;;;36.07;;
9420;SDS011;4749;51.398;5.466;2022-12-17T01:48:01;81.77;;;38.90;;
9420;SDS011;4749;51.398;5.466;2022-12-17T01:50:53;87.80;;;39.50;;
9420;SDS011;4749;51.398;5.466;2022-12-17T01:53:47;80.97;;;39.40;;
9420;SDS011;4749;51.398;5.466;2022-12-17T01:56:38;80.23;;;37.47;;
9420;SDS011;4749;51.398;5.466;2022-12-17T01:59:45;71.23;;;37.17;;
9420;SDS011;4749;51.398;5.466;2022-12-17T02:02:43;77.77;;;36.90;;
9420;SDS011;4749;51.398;5.466;2022-12-17T02:06:17;82.37;;;38.47;;
9420;SDS011;4749;51.398;5.466;2022-12-17T02:09:32;84.40;;;39.33;;
9420;SDS011;4749;51.398;5.466;2022-12-17T02:12:29;78.70;;;36.23;;
9420;SDS011;4749;51.398;5.466;2022-12-17T02:15:45;80.37;;;37.73;;
9420;SDS011;4749;51.398;5.466;2022-12-17T02:18:43;89.53;;;38.13;;
9420;SDS011;4749;51.398;5.466;2022-12-17T02:22:08;84.83;;;38.97;;
9420;SDS011;4749;51.398;5.466;2022-12-17T02:25:38;76.93;;;38.13;;
9420;SDS011;4749;51.398;5.466;2022-12-17T02:28:42;88.93;;;38.80;;
9420;SDS011;4749;51.398;5.466;2022-12-17T02:31:34;79.10;;;37.10;;
9420;SDS011;4749;51.398;5.466;2022-12-17T02:34:23;80.73;;;38.13;;
9420;SDS011;4749;51.398;5.466;2022-12-17T02:37:08;81.10;;;38.00;;
9420;SDS011;4749;51.398;5.466;2022-12-17T02:39:54;85.63;;;39.83;;
9420;SDS011;4749;51.398;5.466;2022-12-17T02:42:41;94.40;;;40.00;;
9420;SDS011;4749;51.398;5.466;2022-12-17T02:45:29;91.13;;;40.30;;
9420;SDS011;4749;51.398;5.466;2022-12-17T02:48:17;86.77;;;39.40;;
9420;SDS011;4749;51.398;5.466;2022-12-17T02:51:03;89.23;;;40.33;;
9420;SDS011;4749;51.398;5.466;2022-12-17T02:53:49;88.50;;;40.17;;
9420;SDS011;4749;51.398;5.466;2022-12-17T02:56:37;94.20;;;39.77;;
9420;SDS011;4749;51.398;5.466;2022-12-17T02:59:23;77.47;;;37.40;;
9420;SDS011;4749;51.398;5.466;2022-12-17T03:02:09;81.47;;;39.00;;
9420;SDS011;4749;51.398;5.466;2022-12-17T03:04:55;91.70;;;40.37;;
9420;SDS011;4749;51.398;5.466;2022-12-17T03:08:01;87.87;;;39.83;;
9420;SDS011;4749;51.398;5.466;2022-12-17T03:10:47;94.40;;;41.80;;
9420;SDS011;4749;51.398;5.466;2022-12-17T03:13:33;86.50;;;39.80;;
9420;SDS011;4749;51.398;5.466;2022-12-17T03:16:18;86.53;;;38.83;;
9420;SDS011;4749;51.398;5.466;2022-12-17T03:19:04;91.37;;;40.97;;
9420;SDS011;4749;51.398;5.466;2022-12-17T03:21:50;90.03;;;40.27;;
9420;SDS011;4749;51.398;5.466;2022-12-17T03:24:38;86.73;;;40.57;;
9420;SDS011;4749;51.398;5.466;2022-12-17T03:27:24;84.77;;;40.10;;
9420;SDS011;4749;51.398;5.466;2022-12-17T03:30:10;98.70;;;42.07;;
9420;SDS011;4749;51.398;5.466;2022-12-17T03:33:01;96.10;;;41.30;;
9420;SDS011;4749;51.398;5.466;2022-12-17T03:35:53;97.63;;;43.40;;
9420;SDS011;4749;51.398;5.466;2022-12-17T03:38:56;93.50;;;41.53;;
9420;SDS011;4749;51.398;5.466;2022-12-17T03:41:53;97.77;;;40.53;;
9420;SDS011;4749;51.398;5.466;2022-12-17T03:44:39;91.00;;;40.13;;
9420;SDS011;4749;51.398;5.466;2022-12-17T03:47:25;102.07;;;40.67;;
9420;SDS011;4749;51.398;5.466;2022-12-17T03:50:11;92.10;;;42.03;;
9420;SDS011;4749;51.398;5.466;2022-12-17T03:52:58;96.70;;;40.37;;
9420;SDS011;4749;51.398;5.466;2022-12-17T03:55:47;95.80;;;41.93;;
9420;SDS011;4749;51.398;5.466;2022-12-17T03:58:33;97.90;;;41.43;;
9420;SDS011;4749;51.398;5.466;2022-12-17T04:01:19;92.67;;;40.90;;
9420;SDS011;4749;51.398;5.466;2022-12-17T04:04:05;89.20;;;40.20;;
9420;SDS011;4749;51.398;5.466;2022-12-17T04:06:51;86.37;;;39.10;;
9420;SDS011;4749;51.398;5.466;2022-12-17T04:09:37;87.53;;;37.57;;
9420;SDS011;4749;51.398;5.466;2022-12-17T04:12:23;78.87;;;36.77;;
9420;SDS011;4749;51.398;5.466;2022-12-17T04:15:08;83.63;;;37.13;;
9420;SDS011;4749;51.398;5.466;2022-12-17T04:17:54;84.30;;;38.10;;
9420;SDS011;4749;51.398;5.466;2022-12-17T04:20:40;81.77;;;37.40;;
9420;SDS011;4749;51.398;5.466;2022-12-17T04:23:26;67.30;;;36.13;;
9420;SDS011;4749;51.398;5.466;2022-12-17T04:26:12;73.77;;;36.77;;
9420;SDS011;4749;51.398;5.466;2022-12-17T04:28:58;72.37;;;35.37;;
9420;SDS011;4749;51.398;5.466;2022-12-17T04:31:43;75.43;;;36.13;;
9420;SDS011;4749;51.398;5.466;2022-12-17T04:34:29;76.10;;;36.03;;
9420;SDS011;4749;51.398;5.466;2022-12-17T04:37:15;74.37;;;35.80;;
9420;SDS011;4749;51.398;5.466;2022-12-17T04:40:01;79.90;;;35.93;;
9420;SDS011;4749;51.398;5.466;2022-12-17T04:42:47;77.40;;;36.13;;
9420;SDS011;4749;51.398;5.466;2022-12-17T04:45:33;73.03;;;34.77;;
9420;SDS011;4749;51.398;5.466;2022-12-17T04:48:21;77.17;;;35.33;;
9420;SDS011;4749;51.398;5.466;2022-12-17T04:51:07;72.73;;;35.03;;
9420;SDS011;4749;51.398;5.466;2022-12-17T04:53:53;76.27;;;37.03;;
9420;SDS011;4749;51.398;5.466;2022-12-17T04:56:39;74.70;;;36.67;;
9420;SDS011;4749;51.398;5.466;2022-12-17T04:59:25;69.53;;;34.17;;
9420;SDS011;4749;51.398;5.466;2022-12-17T05:02:10;74.47;;;35.13;;
9420;SDS011;4749;51.398;5.466;2022-12-17T05:04:56;74.03;;;34.53;;
9420;SDS011;4749;51.398;5.466;2022-12-17T05:07:42;69.40;;;33.93;;
9420;SDS011;4749;51.398;5.466;2022-12-17T05:10:28;76.57;;;35.53;;
9420;SDS011;4749;51.398;5.466;2022-12-17T05:13:33;70.80;;;34.00;;
9420;SDS011;4749;51.398;5.466;2022-12-17T05:16:19;72.77;;;35.13;;
9420;SDS011;4749;51.398;5.466;2022-12-17T05:19:05;74.90;;;36.23;;
9420;SDS011;4749;51.398;5.466;2022-12-17T05:21:52;72.07;;;35.80;;
9420;SDS011;4749;51.398;5.466;2022-12-17T05:24:38;83.07;;;36.20;;
9420;SDS011;4749;51.398;5.466;2022-12-17T05:27:24;80.27;;;35.10;;
9420;SDS011;4749;51.398;5.466;2022-12-17T05:30:10;73.07;;;35.00;;
9420;SDS011;4749;51.398;5.466;2022-12-17T05:32:57;74.33;;;35.33;;
9420;SDS011;4749;51.398;5.466;2022-12-17T05:35:44;80.43;;;36.23;;
9420;SDS011;4749;51.398;5.466;2022-12-17T05:38:30;78.77;;;35.60;;
9420;SDS011;4749;51.398;5.466;2022-12-17T05:41:16;77.93;;;35.97;;
9420;SDS011;4749;51.398;5.466;2022-12-17T05:44:02;76.83;;;35.73;;
9420;SDS011;4749;51.398;5.466;2022-12-17T05:46:48;79.83;;;35.87;;
9420;SDS011;4749;51.398;5.466;2022-12-17T05:49:34;71.33;;;33.50;;
9420;SDS011;4749;51.398;5.466;2022-12-17T05:52:21;72.13;;;34.03;;
9420;SDS011;4749;51.398;5.466;2022-12-17T05:55:07;70.10;;;35.03;;
9420;SDS011;4749;51.398;5.466;2022-12-17T05:58:00;76.17;;;35.77;;
9420;SDS011;4749;51.398;5.466;2022-12-17T06:00:48;71.90;;;33.63;;
9420;SDS011;4749;51.398;5.466;2022-12-17T06:03:39;71.97;;;35.20;;
9420;SDS011;4749;51.398;5.466;2022-12-17T06:06:25;75.50;;;33.93;;
9420;SDS011;4749;51.398;5.466;2022-12-17T06:09:11;76.90;;;35.03;;
9420;SDS011;4749;51.398;5.466;2022-12-17T06:11:57;75.27;;;34.20;;
9420;SDS011;4749;51.398;5.466;2022-12-17T06:14:43;71.80;;;35.43;;
9420;SDS011;4749;51.398;5.466;2022-12-17T06:17:28;73.00;;;35.33;;
9420;SDS011;4749;51.398;5.466;2022-12-17T06:20:14;69.23;;;34.10;;
9420;SDS011;4749;51.398;5.466;2022-12-17T06:23:08;76.97;;;35.90;;
9420;SDS011;4749;51.398;5.466;2022-12-17T06:25:54;73.30;;;35.33;;
9420;SDS011;4749;51.398;5.466;2022-12-17T06:28:41;70.13;;;34.40;;
9420;SDS011;4749;51.398;5.466;2022-12-17T06:31:27;73.33;;;33.97;;
9420;SDS011;4749;51.398;5.466;2022-12-17T06:34:13;75.63;;;35.63;;
9420;SDS011;4749;51.398;5.466;2022-12-17T06:36:59;76.03;;;35.90;;
9420;SDS011;4749;51.398;5.466;2022-12-17T06:39:45;70.93;;;34.83;;
9420;SDS011;4749;51.398;5.466;2022-12-17T06:42:30;69.47;;;33.17;;
9420;SDS011;4749;51.398;5.466;2022-12-17T06:45:16;75.17;;;36.20;;
9420;SDS011;4749;51.398;5.466;2022-12-17T06:48:03;71.97;;;34.40;;
9420;SDS011;4749;51.398;5.466;2022-12-17T06:50:54;76.93;;;36.77;;
9420;SDS011;4749;51.398;5.466;2022-12-17T06:53:40;76.10;;;34.77;;
9420;SDS011;4749;51.398;5.466;2022-12-17T06:56:26;76.63;;;37.20;;
9420;SDS011;4749;51.398;5.466;2022-12-17T06:59:12;76.20;;;34.67;;
9420;SDS011;4749;51.398;5.466;2022-12-17T07:01:58;75.77;;;36.47;;
9420;SDS011;4749;51.398;5.466;2022-12-17T07:04:44;74.23;;;36.60;;
9420;SDS011;4749;51.398;5.466;2022-12-17T07:07:30;75.43;;;36.77;;
9420;SDS011;4749;51.398;5.466;2022-12-17T07:10:17;76.23;;;37.07;;
9420;SDS011;4749;51.398;5.466;2022-12-17T07:13:04;75.27;;;35.97;;
9420;SDS011;4749;51.398;5.466;2022-12-17T07:15:51;80.53;;;37.30;;
9420;SDS011;4749;51.398;5.466;2022-12-17T07:18:38;74.97;;;35.37;;
9420;SDS011;4749;51.398;5.466;2022-12-17T07:21:24;78.53;;;38.13;;
9420;SDS011;4749;51.398;5.466;2022-12-17T07:24:10;73.30;;;34.73;;
9420;SDS011;4749;51.398;5.466;2022-12-17T07:26:56;80.47;;;36.80;;
9420;SDS011;4749;51.398;5.466;2022-12-17T07:29:43;78.50;;;35.57;;
9420;SDS011;4749;51.398;5.466;2022-12-17T07:32:29;81.03;;;36.50;;
9420;SDS011;4749;51.398;5.466;2022-12-17T07:35:19;83.73;;;37.27;;
9420;SDS011;4749;51.398;5.466;2022-12-17T07:38:05;75.67;;;34.40;;
9420;SDS011;4749;51.398;5.466;2022-12-17T07:40:52;77.10;;;35.60;;
9420;SDS011;4749;51.398;5.466;2022-12-17T07:43:39;84.00;;;35.83;;
9420;SDS011;4749;51.398;5.466;2022-12-17T07:46:27;77.67;;;33.47;;
9420;SDS011;4749;51.398;5.466;2022-12-17T07:49:19;78.93;;;37.10;;
9420;SDS011;4749;51.398;5.466;2022-12-17T07:52:25;81.63;;;37.20;;
9420;SDS011;4749;51.398;5.466;2022-12-17T07:55:21;80.93;;;35.87;;
9420;SDS011;4749;51.398;5.466;2022-12-17T07:58:35;84.97;;;36.13;;
9420;SDS011;4749;51.398;5.466;2022-12-17T08:01:21;82.77;;;38.00;;
9420;SDS011;4749;51.398;5.466;2022-12-17T08:04:11;87.73;;;36.73;;
9420;SDS011;4749;51.398;5.466;2022-12-17T08:07:00;81.53;;;36.60;;
9420;SDS011;4749;51.398;5.466;2022-12-17T08:09:56;82.63;;;37.23;;
9420;SDS011;4749;51.398;5.466;2022-12-17T08:12:52;85.90;;;36.33;;
9420;SDS011;4749;51.398;5.466;2022-12-17T08:15:45;82.23;;;35.70;;
9420;SDS011;4749;51.398;5.466;2022-12-17T08:18:32;85.17;;;36.00;;
9420;SDS011;4749;51.398;5.466;2022-12-17T08:21:19;85.60;;;39.40;;
9420;SDS011;4749;51.398;5.466;2022-12-17T08:24:05;79.97;;;35.50;;
9420;SDS011;4749;51.398;5.466;2022-12-17T08:26:51;83.37;;;34.70;;
9420;SDS011;4749;51.398;5.466;2022-12-17T08:29:36;80.83;;;34.13;;
9420;SDS011;4749;51.398;5.466;2022-12-17T08:32:22;84.23;;;37.47;;
9420;SDS011;4749;51.398;5.466;2022-12-17T08:35:09;87.40;;;37.13;;
9420;SDS011;4749;51.398;5.466;2022-12-17T08:38:01;78.40;;;36.13;;
9420;SDS011;4749;51.398;5.466;2022-12-17T08:40:49;78.50;;;34.53;;
9420;SDS011;4749;51.398;5.466;2022-12-17T08:43:34;76.77;;;37.53;;
9420;SDS011;4749;51.398;5.466;2022-12-17T08:46:20;70.70;;;34.93;;
9420;SDS011;4749;51.398;5.466;2022-12-17T08:49:05;82.50;;;36.40;;
9420;SDS011;4749;51.398;5.466;2022-12-17T08:51:51;74.73;;;36.87;;
9420;SDS011;4749;51.398;5.466;2022-12-17T08:54:36;74.03;;;35.73;;
9420;SDS011;4749;51.398;5.466;2022-12-17T08:57:22;74.70;;;35.70;;
9420;SDS011;4749;51.398;5.466;2022-12-17T09:00:08;77.73;;;36.63;;
9420;SDS011;4749;51.398;5.466;2022-12-17T09:02:58;73.90;;;35.50;;
9420;SDS011;4749;51.398;5.466;2022-12-17T09:05:45;76.77;;;36.57;;
9420;SDS011;4749;51.398;5.466;2022-12-17T09:08:31;73.87;;;34.83;;
9420;SDS011;4749;51.398;5.466;2022-12-17T09:11:17;77.53;;;35.60;;
9420;SDS011;4749;51.398;5.466;2022-12-17T09:14:03;74.60;;;35.63;;
9420;SDS011;4749;51.398;5.466;2022-12-17T09:16:48;77.10;;;38.17;;
9420;SDS011;4749;51.398;5.466;2022-12-17T09:19:34;72.20;;;36.27;;
9420;SDS011;4749;51.398;5.466;2022-12-17T09:22:20;73.60;;;35.90;;
9420;SDS011;4749;51.398;5.466;2022-12-17T09:25:06;70.97;;;34.50;;
9420;SDS011;4749;51.398;5.466;2022-12-17T09:27:52;71.20;;;36.70;;
9420;SDS011;4749;51.398;5.466;2022-12-17T09:30:38;74.40;;;36.10;;
9420;SDS011;4749;51.398;5.466;2022-12-17T09:33:25;71.27;;;35.07;;
9420;SDS011;4749;51.398;5.466;2022-12-17T09:36:11;69.83;;;36.40;;
9420;SDS011;4749;51.398;5.466;2022-12-17T09:39:00;80.47;;;38.30;;
9420;SDS011;4749;51.398;5.466;2022-12-17T09:44:43;75.80;;;36.37;;
9420;SDS011;4749;51.398;5.466;2022-12-17T09:47:43;75.07;;;35.47;;
9420;SDS011;4749;51.398;5.466;2022-12-17T09:50:39;75.43;;;37.30;;
9420;SDS011;4749;51.398;5.466;2022-12-17T09:56:24;75.57;;;37.97;;
9420;SDS011;4749;51.398;5.466;2022-12-17T09:59:25;75.53;;;37.20;;
9420;SDS011;4749;51.398;5.466;2022-12-17T10:02:27;74.13;;;36.73;;
9420;SDS011;4749;51.398;5.466;2022-12-17T10:05:21;73.93;;;36.53;;
9420;SDS011;4749;51.398;5.466;2022-12-17T10:08:17;73.77;;;36.10;;
9420;SDS011;4749;51.398;5.466;2022-12-17T10:11:10;69.90;;;34.33;;
9420;SDS011;4749;51.398;5.466;2022-12-17T10:20:31;71.10;;;35.73;;
9420;SDS011;4749;51.398;5.466;2022-12-17T10:23:36;69.07;;;35.70;;
9420;SDS011;4749;51.398;5.466;2022-12-17T10:26:30;73.40;;;34.40;;
9420;SDS011;4749;51.398;5.466;2022-12-17T10:29:53;66.77;;;33.70;;
9420;SDS011;4749;51.398;5.466;2022-12-17T10:33:48;73.97;;;34.87;;
9420;SDS011;4749;51.398;5.466;2022-12-17T10:37:17;63.57;;;32.30;;
9420;SDS011;4749;51.398;5.466;2022-12-17T10:40:37;67.37;;;33.70;;
9420;SDS011;4749;51.398;5.466;2022-12-17T10:43:52;67.10;;;34.10;;
9420;SDS011;4749;51.398;5.466;2022-12-17T10:46:38;68.27;;;34.47;;
9420;SDS011;4749;51.398;5.466;2022-12-17T10:49:29;68.00;;;32.87;;
9420;SDS011;4749;51.398;5.466;2022-12-17T10:52:28;65.53;;;33.87;;
9420;SDS011;4749;51.398;5.466;2022-12-17T10:55:21;68.20;;;33.73;;
9420;SDS011;4749;51.398;5.466;2022-12-17T10:58:45;69.30;;;35.20;;
9420;SDS011;4749;51.398;5.466;2022-12-17T11:01:45;65.53;;;33.13;;
9420;SDS011;4749;51.398;5.466;2022-12-17T11:04:52;62.27;;;33.67;;
9420;SDS011;4749;51.398;5.466;2022-12-17T11:07:46;68.87;;;35.13;;
9420;SDS011;4749;51.398;5.466;2022-12-17T11:10:57;67.60;;;34.20;;
9420;SDS011;4749;51.398;5.466;2022-12-17T11:13:59;66.67;;;33.67;;
9420;SDS011;4749;51.398;5.466;2022-12-17T11:17:13;70.20;;;37.03;;
9420;SDS011;4749;51.398;5.466;2022-12-17T11:25:25;69.63;;;35.37;;
9420;SDS011;4749;51.398;5.466;2022-12-17T11:29:23;65.90;;;33.73;;
9420;SDS011;4749;51.398;5.466;2022-12-17T11:32:26;70.50;;;36.17;;
9420;SDS011;4749;51.398;5.466;2022-12-17T11:35:43;73.73;;;36.57;;
9420;SDS011;4749;51.398;5.466;2022-12-17T11:38:47;70.43;;;36.07;;
9420;SDS011;4749;51.398;5.466;2022-12-17T11:45:01;70.20;;;35.13;;
9420;SDS011;4749;51.398;5.466;2022-12-17T11:48:05;66.77;;;32.80;;
9420;SDS011;4749;51.398;5.466;2022-12-17T11:51:15;66.67;;;33.07;;
9420;SDS011;4749;51.398;5.466;2022-12-17T11:54:33;65.27;;;33.67;;
9420;SDS011;4749;51.398;5.466;2022-12-17T12:02:27;65.50;;;33.47;;
9420;SDS011;4749;51.398;5.466;2022-12-17T12:06:07;70.10;;;34.70;;
9420;SDS011;4749;51.398;5.466;2022-12-17T12:09:56;72.63;;;35.50;;
9420;SDS011;4749;51.398;5.466;2022-12-17T12:13:07;72.00;;;35.07;;
9420;SDS011;4749;51.398;5.466;2022-12-17T12:20:23;68.77;;;33.07;;
9420;SDS011;4749;51.398;5.466;2022-12-17T12:27:42;65.17;;;33.30;;
9420;SDS011;4749;51.398;5.466;2022-12-17T12:34:24;70.73;;;33.80;;
9420;SDS011;4749;51.398;5.466;2022-12-17T12:37:21;72.40;;;33.67;;
9420;SDS011;4749;51.398;5.466;2022-12-17T12:40:15;68.10;;;33.60;;
9420;SDS011;4749;51.398;5.466;2022-12-17T12:43:51;75.03;;;34.67;;
9420;SDS011;4749;51.398;5.466;2022-12-17T12:46:55;74.90;;;36.30;;
9420;SDS011;4749;51.398;5.466;2022-12-17T12:49:59;74.37;;;35.50;;
9420;SDS011;4749;51.398;5.466;2022-12-17T12:56:02;73.73;;;35.87;;
9420;SDS011;4749;51.398;5.466;2022-12-17T13:00:03;74.80;;;35.60;;
9420;SDS011;4749;51.398;5.466;2022-12-17T13:04:00;78.57;;;35.83;;
9420;SDS011;4749;51.398;5.466;2022-12-17T13:10:44;74.87;;;34.73;;
9420;SDS011;4749;51.398;5.466;2022-12-17T13:13:50;70.50;;;34.30;;
9420;SDS011;4749;51.398;5.466;2022-12-17T13:16:31;71.20;;;33.70;;
9420;SDS011;4749;51.398;5.466;2022-12-17T13:24:52;79.83;;;36.73;;
9420;SDS011;4749;51.398;5.466;2022-12-17T13:27:42;79.60;;;37.23;;
9420;SDS011;4749;51.398;5.466;2022-12-17T13:32:57;80.00;;;36.67;;
9420;SDS011;4749;51.398;5.466;2022-12-17T13:41:50;79.50;;;35.10;;
9420;SDS011;4749;51.398;5.466;2022-12-17T13:44:23;74.93;;;35.60;;
9420;SDS011;4749;51.398;5.466;2022-12-17T13:46:55;84.80;;;37.47;;
9420;SDS011;4749;51.398;5.466;2022-12-17T13:49:23;77.57;;;37.30;;
9420;SDS011;4749;51.398;5.466;2022-12-17T13:52:04;78.10;;;36.63;;
9420;SDS011;4749;51.398;5.466;2022-12-17T13:54:42;82.77;;;36.53;;
9420;SDS011;4749;51.398;5.466;2022-12-17T13:57:20;80.07;;;36.97;;
9420;SDS011;4749;51.398;5.466;2022-12-17T13:59:50;80.23;;;36.93;;
9420;SDS011;4749;51.398;5.466;2022-12-17T14:05:01;80.63;;;36.17;;
9420;SDS011;4749;51.398;5.466;2022-12-17T14:07:46;81.43;;;36.13;;
9420;SDS011;4749;51.398;5.466;2022-12-17T14:10:16;75.83;;;35.00;;
9420;SDS011;4749;51.398;5.466;2022-12-17T14:12:47;75.13;;;33.33;;
9420;SDS011;4749;51.398;5.466;2022-12-17T14:15:25;76.30;;;35.23;;
9420;SDS011;4749;51.398;5.466;2022-12-17T14:17:57;77.73;;;34.30;;
9420;SDS011;4749;51.398;5.466;2022-12-17T14:20:25;69.20;;;32.87;;
9420;SDS011;4749;51.398;5.466;2022-12-17T14:23:06;83.13;;;35.47;;
9420;SDS011;4749;51.398;5.466;2022-12-17T14:25:49;82.07;;;35.60;;
9420;SDS011;4749;51.398;5.466;2022-12-17T14:28:30;81.57;;;36.00;;
9420;SDS011;4749;51.398;5.466;2022-12-17T14:31:14;81.27;;;35.53;;
9420;SDS011;4749;51.398;5.466;2022-12-17T14:34:03;90.10;;;35.67;;
9420;SDS011;4749;51.398;5.466;2022-12-17T14:36:37;81.60;;;35.13;;
9420;SDS011;4749;51.398;5.466;2022-12-17T14:41:58;81.30;;;35.13;;
9420;SDS011;4749;51.398;5.466;2022-12-17T14:44:56;86.10;;;35.70;;
9420;SDS011;4749;51.398;5.466;2022-12-17T14:47:31;82.47;;;33.60;;
9420;SDS011;4749;51.398;5.466;2022-12-17T14:52:46;84.90;;;36.63;;
9420;SDS011;4749;51.398;5.466;2022-12-17T15:00:44;85.23;;;36.27;;
9420;SDS011;4749;51.398;5.466;2022-12-17T15:03:31;87.10;;;34.97;;
9420;SDS011;4749;51.398;5.466;2022-12-17T15:06:04;83.23;;;35.70;;
9420;SDS011;4749;51.398;5.466;2022-12-17T15:08:55;93.47;;;38.10;;
9420;SDS011;4749;51.398;5.466;2022-12-17T15:11:25;90.33;;;37.67;;
9420;SDS011;4749;51.398;5.466;2022-12-17T15:13:53;83.37;;;34.53;;
9420;SDS011;4749;51.398;5.466;2022-12-17T15:16:22;81.47;;;34.50;;
9420;SDS011;4749;51.398;5.466;2022-12-17T15:19:02;83.43;;;34.43;;
9420;SDS011;4749;51.398;5.466;2022-12-17T15:21:42;82.50;;;34.53;;
9420;SDS011;4749;51.398;5.466;2022-12-17T15:24:14;81.53;;;32.90;;
9420;SDS011;4749;51.398;5.466;2022-12-17T15:26:55;101.67;;;35.60;;
9420;SDS011;4749;51.398;5.466;2022-12-17T15:29:33;79.87;;;34.50;;
9420;SDS011;4749;51.398;5.466;2022-12-17T15:32:06;87.40;;;33.80;;
9420;SDS011;4749;51.398;5.466;2022-12-17T15:34:52;85.23;;;34.83;;
9420;SDS011;4749;51.398;5.466;2022-12-17T15:37:25;89.67;;;36.30;;
9420;SDS011;4749;51.398;5.466;2022-12-17T15:39:56;90.30;;;35.43;;
9420;SDS011;4749;51.398;5.466;2022-12-17T15:42:27;87.13;;;35.17;;
9420;SDS011;4749;51.398;5.466;2022-12-17T15:45:16;84.53;;;34.80;;
9420;SDS011;4749;51.398;5.466;2022-12-17T15:48:04;86.17;;;32.43;;
9420;SDS011;4749;51.398;5.466;2022-12-17T15:50:31;84.73;;;34.23;;
9420;SDS011;4749;51.398;5.466;2022-12-17T15:53:02;83.77;;;34.40;;
9420;SDS011;4749;51.398;5.466;2022-12-17T15:55:36;76.17;;;30.90;;
9420;SDS011;4749;51.398;5.466;2022-12-17T15:58:05;72.77;;;30.47;;
9420;SDS011;4749;51.398;5.466;2022-12-17T16:00:36;74.43;;;31.90;;
9420;SDS011;4749;51.398;5.466;2022-12-17T16:03:04;77.70;;;33.87;;
9420;SDS011;4749;51.398;5.466;2022-12-17T16:05:31;71.00;;;29.67;;
9420;SDS011;4749;51.398;5.466;2022-12-17T16:07:59;77.60;;;32.23;;
9420;SDS011;4749;51.398;5.466;2022-12-17T16:10:28;79.17;;;32.73;;
9420;SDS011;4749;51.398;5.466;2022-12-17T16:12:56;77.23;;;30.90;;
9420;SDS011;4749;51.398;5.466;2022-12-17T16:15:23;84.90;;;35.17;;
9420;SDS011;4749;51.398;5.466;2022-12-17T16:17:53;75.77;;;32.87;;
9420;SDS011;4749;51.398;5.466;2022-12-17T16:20:22;89.13;;;36.47;;
9420;SDS011;4749;51.398;5.466;2022-12-17T16:22:54;90.77;;;37.07;;
9420;SDS011;4749;51.398;5.466;2022-12-17T16:25:30;88.50;;;35.60;;
9420;SDS011;4749;51.398;5.466;2022-12-17T16:27:58;89.60;;;35.27;;
9420;SDS011;4749;51.398;5.466;2022-12-17T16:30:25;82.07;;;33.40;;
9420;SDS011;4749;51.398;5.466;2022-12-17T16:32:52;96.27;;;36.17;;
9420;SDS011;4749;51.398;5.466;2022-12-17T16:35:25;91.03;;;35.70;;
9420;SDS011;4749;51.398;5.466;2022-12-17T16:37:56;86.60;;;34.07;;
9420;SDS011;4749;51.398;5.466;2022-12-17T16:40:23;90.90;;;35.13;;
9420;SDS011;4749;51.398;5.466;2022-12-17T16:42:50;89.53;;;37.83;;
9420;SDS011;4749;51.398;5.466;2022-12-17T16:45:17;83.23;;;34.43;;
9420;SDS011;4749;51.398;5.466;2022-12-17T16:47:45;85.70;;;36.67;;
9420;SDS011;4749;51.398;5.466;2022-12-17T16:50:12;95.70;;;36.83;;
9420;SDS011;4749;51.398;5.466;2022-12-17T16:52:44;91.43;;;36.23;;
9420;SDS011;4749;51.398;5.466;2022-12-17T16:55:13;85.60;;;35.87;;
9420;SDS011;4749;51.398;5.466;2022-12-17T16:57:40;91.20;;;36.77;;
9420;SDS011;4749;51.398;5.466;2022-12-17T17:00:07;90.50;;;37.13;;
9420;SDS011;4749;51.398;5.466;2022-12-17T17:02:36;90.40;;;37.47;;
9420;SDS011;4749;51.398;5.466;2022-12-17T17:05:18;90.20;;;37.23;;
9420;SDS011;4749;51.398;5.466;2022-12-17T17:07:45;92.53;;;37.00;;
9420;SDS011;4749;51.398;5.466;2022-12-17T17:10:12;97.37;;;39.00;;
9420;SDS011;4749;51.398;5.466;2022-12-17T17:12:39;96.67;;;37.50;;
9420;SDS011;4749;51.398;5.466;2022-12-17T17:15:07;91.80;;;36.27;;
9420;SDS011;4749;51.398;5.466;2022-12-17T17:17:35;89.77;;;34.00;;
9420;SDS011;4749;51.398;5.466;2022-12-17T17:20:22;100.67;;;39.67;;
9420;SDS011;4749;51.398;5.466;2022-12-17T17:22:49;96.57;;;37.17;;
9420;SDS011;4749;51.398;5.466;2022-12-17T17:25:16;109.57;;;40.30;;
9420;SDS011;4749;51.398;5.466;2022-12-17T17:27:43;113.07;;;39.23;;
9420;SDS011;4749;51.398;5.466;2022-12-17T17:30:10;114.77;;;40.17;;
9420;SDS011;4749;51.398;5.466;2022-12-17T17:32:38;104.83;;;38.97;;
9420;SDS011;4749;51.398;5.466;2022-12-17T17:35:05;94.93;;;34.57;;
9420;SDS011;4749;51.398;5.466;2022-12-17T17:37:33;101.33;;;35.93;;
9420;SDS011;4749;51.398;5.466;2022-12-17T17:40:00;101.13;;;37.00;;
9420;SDS011;4749;51.398;5.466;2022-12-17T17:42:28;100.97;;;35.53;;
9420;SDS011;4749;51.398;5.466;2022-12-17T17:44:55;94.03;;;34.30;;
9420;SDS011;4749;51.398;5.466;2022-12-17T17:47:25;90.30;;;36.43;;
9420;SDS011;4749;51.398;5.466;2022-12-17T17:49:55;91.73;;;36.93;;
9420;SDS011;4749;51.398;5.466;2022-12-17T17:52:22;102.30;;;37.33;;
9420;SDS011;4749;51.398;5.466;2022-12-17T17:54:49;100.07;;;37.43;;
9420;SDS011;4749;51.398;5.466;2022-12-17T17:57:16;101.17;;;39.03;;
9420;SDS011;4749;51.398;5.466;2022-12-17T17:59:44;95.20;;;37.10;;
9420;SDS011;4749;51.398;5.466;2022-12-17T18:02:11;101.97;;;35.97;;